sensor_id;sensor_type;location;lat;lon;timestamp;temperature;humidity
23010;DHT22;11671;49.990;8.028;2023-03-07T00:01:26;5.20;99.90
23010;DHT22;11671;49.990;8.028;2023-03-07T00:03:51;5.20;99.90
23010;DHT22;11671;49.990;8.028;2023-03-07T00:06:17;5.20;99.90
23010;DHT22;11671;49.990;8.028;2023-03-07T00:08:43;5.20;99.90
23010;DHT22;11671;49.990;8.028;2023-03-07T00:11:08;5.20;99.90
23010;DHT22;11671;49.990;8.028;2023-03-07T00:13:36;5.20;99.90
23010;DHT22;11671;49.990;8.028;2023-03-07T00:16:07;5.30;99.90
23010;DHT22;11671;49.990;8.028;2023-03-07T00:18:33;5.30;99.90
23010;DHT22;11671;49.990;8.028;2023-03-07T00:21:01;5.30;99.90
23010;DHT22;11671;49.990;8.028;2023-03-07T00:23:27;5.30;99.90
23010;DHT22;11671;49.990;8.028;2023-03-07T00:25:59;5.30;99.90
23010;DHT22;11671;49.990;8.028;2023-03-07T00:28:26;5.30;99.90
23010;DHT22;11671;49.990;8.028;2023-03-07T00:30:52;5.30;99.90
23010;DHT22;11671;49.990;8.028;2023-03-07T00:33:17;5.30;99.90
23010;DHT22;11671;49.990;8.028;2023-03-07T00:35:43;5.30;99.90
23010;DHT22;11671;49.990;8.028;2023-03-07T00:38:08;5.20;99.90
23010;DHT22;11671;49.990;8.028;2023-03-07T00:40:34;5.20;99.90
23010;DHT22;11671;49.990;8.028;2023-03-07T00:42:59;5.20;99.90
23010;DHT22;11671;49.990;8.028;2023-03-07T00:45:25;5.20;99.90
23010;DHT22;11671;49.990;8.028;2023-03-07T00:47:50;5.20;99.90
23010;DHT22;11671;49.990;8.028;2023-03-07T00:50:16;5.20;99.90
23010;DHT22;11671;49.990;8.028;2023-03-07T00:52:42;5.30;99.90
23010;DHT22;11671;49.990;8.028;2023-03-07T00:55:08;5.30;99.90
23010;DHT22;11671;49.990;8.028;2023-03-07T00:57:33;5.20;99.90
23010;DHT22;11671;49.990;8.028;2023-03-07T00:59:59;5.20;99.90
23010;DHT22;11671;49.990;8.028;2023-03-07T01:02:24;5.20;99.90
23010;DHT22;11671;49.990;8.028;2023-03-07T01:04:50;5.20;99.90
23010;DHT22;11671;49.990;8.028;2023-03-07T01:07:16;5.20;99.90
23010;DHT22;11671;49.990;8.028;2023-03-07T01:09:41;5.30;99.90
23010;DHT22;11671;49.990;8.028;2023-03-07T01:12:07;5.30;99.90
23010;DHT22;11671;49.990;8.028;2023-03-07T01:14:32;5.20;99.90
23010;DHT22;11671;49.990;8.028;2023-03-07T01:16:58;5.30;99.90
23010;DHT22;11671;49.990;8.028;2023-03-07T01:19:23;5.20;99.90
23010;DHT22;11671;49.990;8.028;2023-03-07T01:21:49;5.20;99.90
23010;DHT22;11671;49.990;8.028;2023-03-07T01:24:15;5.20;99.90
23010;DHT22;11671;49.990;8.028;2023-03-07T01:26:41;5.30;99.90
23010;DHT22;11671;49.990;8.028;2023-03-07T01:29:07;5.30;99.90
23010;DHT22;11671;49.990;8.028;2023-03-07T01:31:33;5.20;99.90
23010;DHT22;11671;49.990;8.028;2023-03-07T01:33:59;5.20;99.90
23010;DHT22;11671;49.990;8.028;2023-03-07T01:36:29;5.30;99.90
23010;DHT22;11671;49.990;8.028;2023-03-07T01:38:57;5.40;99.90
23010;DHT22;11671;49.990;8.028;2023-03-07T01:41:23;5.30;99.90
23010;DHT22;11671;49.990;8.028;2023-03-07T01:43:49;5.30;99.90
23010;DHT22;11671;49.990;8.028;2023-03-07T01:48:40;5.30;99.90
23010;DHT22;11671;49.990;8.028;2023-03-07T01:51:06;5.40;99.90
23010;DHT22;11671;49.990;8.028;2023-03-07T01:53:32;5.40;99.90
23010;DHT22;11671;49.990;8.028;2023-03-07T01:55:57;5.30;99.90
23010;DHT22;11671;49.990;8.028;2023-03-07T01:58:23;5.20;99.90
23010;DHT22;11671;49.990;8.028;2023-03-07T02:00:49;5.10;99.90
23010;DHT22;11671;49.990;8.028;2023-03-07T02:03:36;5.20;99.90
23010;DHT22;11671;49.990;8.028;2023-03-07T02:06:09;5.10;99.90
23010;DHT22;11671;49.990;8.028;2023-03-07T02:08:36;5.10;99.90
23010;DHT22;11671;49.990;8.028;2023-03-07T02:11:04;5.00;99.90
23010;DHT22;11671;49.990;8.028;2023-03-07T02:13:30;5.10;99.90
23010;DHT22;11671;49.990;8.028;2023-03-07T02:15:56;5.00;99.90
23010;DHT22;11671;49.990;8.028;2023-03-07T02:18:27;5.10;99.90
23010;DHT22;11671;49.990;8.028;2023-03-07T02:23:56;5.20;99.90
23010;DHT22;11671;49.990;8.028;2023-03-07T02:26:41;5.10;99.90
23010;DHT22;11671;49.990;8.028;2023-03-07T02:29:08;5.10;99.90
23010;DHT22;11671;49.990;8.028;2023-03-07T02:31:34;5.10;99.90
23010;DHT22;11671;49.990;8.028;2023-03-07T02:34:00;5.10;99.90
23010;DHT22;11671;49.990;8.028;2023-03-07T02:36:27;5.10;99.90
23010;DHT22;11671;49.990;8.028;2023-03-07T02:38:56;5.00;99.90
23010;DHT22;11671;49.990;8.028;2023-03-07T02:41:24;5.00;99.90
23010;DHT22;11671;49.990;8.028;2023-03-07T02:43:52;5.00;99.90
23010;DHT22;11671;49.990;8.028;2023-03-07T02:46:17;5.00;99.90
23010;DHT22;11671;49.990;8.028;2023-03-07T02:48:45;5.00;99.90
23010;DHT22;11671;49.990;8.028;2023-03-07T02:51:10;5.00;99.90
23010;DHT22;11671;49.990;8.028;2023-03-07T02:53:36;5.00;99.90
23010;DHT22;11671;49.990;8.028;2023-03-07T02:56:02;5.10;99.90
23010;DHT22;11671;49.990;8.028;2023-03-07T02:58:28;5.00;99.90
23010;DHT22;11671;49.990;8.028;2023-03-07T03:00:53;5.00;99.90
23010;DHT22;11671;49.990;8.028;2023-03-07T03:03:19;5.10;99.90
23010;DHT22;11671;49.990;8.028;2023-03-07T03:05:45;5.00;99.90
23010;DHT22;11671;49.990;8.028;2023-03-07T03:08:10;5.10;99.90
23010;DHT22;11671;49.990;8.028;2023-03-07T03:10:37;5.00;99.90
23010;DHT22;11671;49.990;8.028;2023-03-07T03:13:02;5.10;99.90
23010;DHT22;11671;49.990;8.028;2023-03-07T03:15:28;5.10;99.90
23010;DHT22;11671;49.990;8.028;2023-03-07T03:17:54;5.10;99.90
23010;DHT22;11671;49.990;8.028;2023-03-07T03:20:20;5.20;99.90
23010;DHT22;11671;49.990;8.028;2023-03-07T03:22:45;5.30;99.90
23010;DHT22;11671;49.990;8.028;2023-03-07T03:25:12;5.30;99.90
23010;DHT22;11671;49.990;8.028;2023-03-07T03:27:39;5.20;99.90
23010;DHT22;11671;49.990;8.028;2023-03-07T03:30:09;5.20;99.90
23010;DHT22;11671;49.990;8.028;2023-03-07T03:32:38;5.20;99.90
23010;DHT22;11671;49.990;8.028;2023-03-07T03:35:05;5.20;99.90
23010;DHT22;11671;49.990;8.028;2023-03-07T03:37:32;5.20;99.90
23010;DHT22;11671;49.990;8.028;2023-03-07T03:39:58;5.20;99.90
23010;DHT22;11671;49.990;8.028;2023-03-07T03:42:23;5.30;99.90
23010;DHT22;11671;49.990;8.028;2023-03-07T03:44:49;5.20;99.90
23010;DHT22;11671;49.990;8.028;2023-03-07T03:47:15;5.20;99.90
23010;DHT22;11671;49.990;8.028;2023-03-07T03:49:41;5.10;99.90
23010;DHT22;11671;49.990;8.028;2023-03-07T03:52:06;5.10;99.90
23010;DHT22;11671;49.990;8.028;2023-03-07T03:54:32;5.20;99.90
23010;DHT22;11671;49.990;8.028;2023-03-07T03:56:57;5.30;99.90
23010;DHT22;11671;49.990;8.028;2023-03-07T03:59:23;5.30;99.90
23010;DHT22;11671;49.990;8.028;2023-03-07T04:01:49;5.30;99.90
23010;DHT22;11671;49.990;8.028;2023-03-07T04:04:14;5.30;99.90
23010;DHT22;11671;49.990;8.028;2023-03-07T04:06:40;5.30;99.90
23010;DHT22;11671;49.990;8.028;2023-03-07T04:09:07;5.30;99.90
23010;DHT22;11671;49.990;8.028;2023-03-07T04:11:34;5.30;99.90
23010;DHT22;11671;49.990;8.028;2023-03-07T04:13:59;5.30;99.90
23010;DHT22;11671;49.990;8.028;2023-03-07T04:16:25;5.30;99.90
23010;DHT22;11671;49.990;8.028;2023-03-07T04:18:51;5.20;99.90
23010;DHT22;11671;49.990;8.028;2023-03-07T04:21:17;5.20;99.90
23010;DHT22;11671;49.990;8.028;2023-03-07T04:23:44;5.30;99.90
23010;DHT22;11671;49.990;8.028;2023-03-07T04:26:10;5.30;99.90
23010;DHT22;11671;49.990;8.028;2023-03-07T04:28:38;5.20;99.90
23010;DHT22;11671;49.990;8.028;2023-03-07T04:31:15;5.30;99.90
23010;DHT22;11671;49.990;8.028;2023-03-07T04:33:41;5.20;99.90
23010;DHT22;11671;49.990;8.028;2023-03-07T04:36:08;5.10;99.90
23010;DHT22;11671;49.990;8.028;2023-03-07T04:38:34;5.10;99.90
23010;DHT22;11671;49.990;8.028;2023-03-07T04:40:59;5.10;99.90
23010;DHT22;11671;49.990;8.028;2023-03-07T04:43:25;5.20;99.90
23010;DHT22;11671;49.990;8.028;2023-03-07T04:45:51;5.20;99.90
23010;DHT22;11671;49.990;8.028;2023-03-07T04:48:17;5.20;99.90
23010;DHT22;11671;49.990;8.028;2023-03-07T04:50:42;5.20;99.90
23010;DHT22;11671;49.990;8.028;2023-03-07T04:53:08;5.20;99.90
23010;DHT22;11671;49.990;8.028;2023-03-07T04:55:33;5.30;99.90
23010;DHT22;11671;49.990;8.028;2023-03-07T04:57:59;5.20;99.90
23010;DHT22;11671;49.990;8.028;2023-03-07T05:00:24;5.30;99.90
23010;DHT22;11671;49.990;8.028;2023-03-07T05:02:50;5.30;99.90
23010;DHT22;11671;49.990;8.028;2023-03-07T05:05:16;5.30;99.90
23010;DHT22;11671;49.990;8.028;2023-03-07T05:07:42;5.30;99.90
23010;DHT22;11671;49.990;8.028;2023-03-07T05:10:09;5.30;99.90
23010;DHT22;11671;49.990;8.028;2023-03-07T05:12:35;5.30;99.90
23010;DHT22;11671;49.990;8.028;2023-03-07T05:15:00;5.40;99.90
23010;DHT22;11671;49.990;8.028;2023-03-07T05:17:28;5.40;99.90
23010;DHT22;11671;49.990;8.028;2023-03-07T05:19:53;5.40;99.90
23010;DHT22;11671;49.990;8.028;2023-03-07T05:22:19;5.30;99.90
23010;DHT22;11671;49.990;8.028;2023-03-07T05:24:45;5.30;99.90
23010;DHT22;11671;49.990;8.028;2023-03-07T05:27:10;5.30;99.90
23010;DHT22;11671;49.990;8.028;2023-03-07T05:29:36;5.30;99.90
23010;DHT22;11671;49.990;8.028;2023-03-07T05:32:01;5.30;99.90
23010;DHT22;11671;49.990;8.028;2023-03-07T05:34:27;5.30;99.90
23010;DHT22;11671;49.990;8.028;2023-03-07T05:36:53;5.30;99.90
23010;DHT22;11671;49.990;8.028;2023-03-07T05:39:18;5.30;99.90
23010;DHT22;11671;49.990;8.028;2023-03-07T05:41:44;5.30;99.90
23010;DHT22;11671;49.990;8.028;2023-03-07T05:44:09;5.30;99.90
23010;DHT22;11671;49.990;8.028;2023-03-07T05:46:35;5.30;99.90
23010;DHT22;11671;49.990;8.028;2023-03-07T05:49:00;5.30;99.90
23010;DHT22;11671;49.990;8.028;2023-03-07T05:51:26;5.30;99.90
23010;DHT22;11671;49.990;8.028;2023-03-07T05:53:51;5.30;99.90
23010;DHT22;11671;49.990;8.028;2023-03-07T05:56:17;5.30;99.90
23010;DHT22;11671;49.990;8.028;2023-03-07T05:58:43;5.30;99.90
23010;DHT22;11671;49.990;8.028;2023-03-07T06:01:08;5.40;99.90
23010;DHT22;11671;49.990;8.028;2023-03-07T06:03:34;5.40;99.90
23010;DHT22;11671;49.990;8.028;2023-03-07T06:05:59;5.40;99.90
23010;DHT22;11671;49.990;8.028;2023-03-07T06:08:25;5.40;99.90
23010;DHT22;11671;49.990;8.028;2023-03-07T06:10:51;5.40;99.90
23010;DHT22;11671;49.990;8.028;2023-03-07T06:13:22;5.50;99.90
23010;DHT22;11671;49.990;8.028;2023-03-07T06:15:52;5.40;99.90
23010;DHT22;11671;49.990;8.028;2023-03-07T06:18:19;5.50;99.90
23010;DHT22;11671;49.990;8.028;2023-03-07T06:20:54;5.50;99.90
23010;DHT22;11671;49.990;8.028;2023-03-07T06:23:20;5.50;99.90
23010;DHT22;11671;49.990;8.028;2023-03-07T06:25:45;5.50;99.90
23010;DHT22;11671;49.990;8.028;2023-03-07T06:28:11;5.50;99.90
23010;DHT22;11671;49.990;8.028;2023-03-07T06:30:36;5.50;99.90
23010;DHT22;11671;49.990;8.028;2023-03-07T06:33:02;5.50;99.90
23010;DHT22;11671;49.990;8.028;2023-03-07T06:35:27;5.50;99.90
23010;DHT22;11671;49.990;8.028;2023-03-07T06:37:53;5.50;99.90
23010;DHT22;11671;49.990;8.028;2023-03-07T06:40:18;5.50;99.90
23010;DHT22;11671;49.990;8.028;2023-03-07T06:42:44;5.50;99.90
23010;DHT22;11671;49.990;8.028;2023-03-07T06:45:10;5.50;99.90
23010;DHT22;11671;49.990;8.028;2023-03-07T06:47:35;5.60;99.90
23010;DHT22;11671;49.990;8.028;2023-03-07T06:50:01;5.60;99.90
23010;DHT22;11671;49.990;8.028;2023-03-07T06:52:26;5.60;99.90
23010;DHT22;11671;49.990;8.028;2023-03-07T06:54:52;5.80;99.90
23010;DHT22;11671;49.990;8.028;2023-03-07T06:57:17;5.90;99.90
23010;DHT22;11671;49.990;8.028;2023-03-07T06:59:43;6.00;99.90
23010;DHT22;11671;49.990;8.028;2023-03-07T07:02:12;6.00;99.90
23010;DHT22;11671;49.990;8.028;2023-03-07T07:04:38;6.10;99.90
23010;DHT22;11671;49.990;8.028;2023-03-07T07:07:04;6.20;99.90
23010;DHT22;11671;49.990;8.028;2023-03-07T07:09:31;6.20;99.90
23010;DHT22;11671;49.990;8.028;2023-03-07T07:11:57;6.10;99.90
23010;DHT22;11671;49.990;8.028;2023-03-07T07:14:22;6.10;99.90
23010;DHT22;11671;49.990;8.028;2023-03-07T07:16:48;6.20;99.90
23010;DHT22;11671;49.990;8.028;2023-03-07T07:19:14;6.20;99.90
23010;DHT22;11671;49.990;8.028;2023-03-07T07:21:40;6.20;99.90
23010;DHT22;11671;49.990;8.028;2023-03-07T07:24:06;6.30;99.90
23010;DHT22;11671;49.990;8.028;2023-03-07T07:26:33;6.30;99.90
23010;DHT22;11671;49.990;8.028;2023-03-07T07:28:58;6.30;99.90
23010;DHT22;11671;49.990;8.028;2023-03-07T07:31:24;6.20;99.90
23010;DHT22;11671;49.990;8.028;2023-03-07T07:33:49;6.20;99.90
23010;DHT22;11671;49.990;8.028;2023-03-07T07:36:15;6.30;99.90
23010;DHT22;11671;49.990;8.028;2023-03-07T07:38:41;6.30;99.90
23010;DHT22;11671;49.990;8.028;2023-03-07T07:41:06;6.40;99.90
23010;DHT22;11671;49.990;8.028;2023-03-07T07:43:32;6.50;99.90
23010;DHT22;11671;49.990;8.028;2023-03-07T07:45:57;6.60;99.90
23010;DHT22;11671;49.990;8.028;2023-03-07T07:48:23;6.80;99.90
23010;DHT22;11671;49.990;8.028;2023-03-07T07:50:48;7.00;99.90
23010;DHT22;11671;49.990;8.028;2023-03-07T07:53:14;7.30;99.90
23010;DHT22;11671;49.990;8.028;2023-03-07T07:55:42;7.50;99.90
23010;DHT22;11671;49.990;8.028;2023-03-07T07:58:08;7.70;99.90
23010;DHT22;11671;49.990;8.028;2023-03-07T08:00:34;7.80;99.90
23010;DHT22;11671;49.990;8.028;2023-03-07T08:02:59;7.80;99.90
23010;DHT22;11671;49.990;8.028;2023-03-07T08:05:25;8.00;99.90
23010;DHT22;11671;49.990;8.028;2023-03-07T08:07:50;8.30;99.90
23010;DHT22;11671;49.990;8.028;2023-03-07T08:10:16;8.40;99.90
23010;DHT22;11671;49.990;8.028;2023-03-07T08:12:48;8.60;99.90
23010;DHT22;11671;49.990;8.028;2023-03-07T08:15:16;8.60;99.90
23010;DHT22;11671;49.990;8.028;2023-03-07T08:17:42;8.70;99.90
23010;DHT22;11671;49.990;8.028;2023-03-07T08:20:09;8.60;99.90
23010;DHT22;11671;49.990;8.028;2023-03-07T08:22:35;8.60;99.90
23010;DHT22;11671;49.990;8.028;2023-03-07T08:25:02;8.50;99.90
23010;DHT22;11671;49.990;8.028;2023-03-07T08:27:28;8.20;99.90
23010;DHT22;11671;49.990;8.028;2023-03-07T08:29:54;8.10;99.90
23010;DHT22;11671;49.990;8.028;2023-03-07T08:32:20;8.00;99.90
23010;DHT22;11671;49.990;8.028;2023-03-07T08:34:45;8.00;99.90
23010;DHT22;11671;49.990;8.028;2023-03-07T08:37:11;8.00;99.90
23010;DHT22;11671;49.990;8.028;2023-03-07T08:39:36;8.10;99.90
23010;DHT22;11671;49.990;8.028;2023-03-07T08:42:02;8.00;99.90
23010;DHT22;11671;49.990;8.028;2023-03-07T08:44:27;8.00;99.90
23010;DHT22;11671;49.990;8.028;2023-03-07T08:46:53;7.90;99.90
23010;DHT22;11671;49.990;8.028;2023-03-07T08:49:18;8.10;99.90
23010;DHT22;11671;49.990;8.028;2023-03-07T08:51:46;8.10;99.90
23010;DHT22;11671;49.990;8.028;2023-03-07T08:54:12;8.10;99.90
23010;DHT22;11671;49.990;8.028;2023-03-07T08:56:37;8.10;99.90
23010;DHT22;11671;49.990;8.028;2023-03-07T08:59:03;8.20;99.90
23010;DHT22;11671;49.990;8.028;2023-03-07T09:01:28;8.10;99.90
23010;DHT22;11671;49.990;8.028;2023-03-07T09:03:54;8.20;99.90
23010;DHT22;11671;49.990;8.028;2023-03-07T09:06:20;8.20;99.90
23010;DHT22;11671;49.990;8.028;2023-03-07T09:08:46;8.20;99.90
23010;DHT22;11671;49.990;8.028;2023-03-07T09:11:12;8.40;99.90
23010;DHT22;11671;49.990;8.028;2023-03-07T09:13:38;8.60;99.90
23010;DHT22;11671;49.990;8.028;2023-03-07T09:16:04;8.80;99.90
23010;DHT22;11671;49.990;8.028;2023-03-07T09:18:30;8.80;99.90
23010;DHT22;11671;49.990;8.028;2023-03-07T09:21:02;8.80;99.90
23010;DHT22;11671;49.990;8.028;2023-03-07T09:23:28;8.90;99.90
23010;DHT22;11671;49.990;8.028;2023-03-07T09:25:57;9.00;99.90
23010;DHT22;11671;49.990;8.028;2023-03-07T09:28:22;8.90;99.90
23010;DHT22;11671;49.990;8.028;2023-03-07T09:30:48;9.10;99.90
23010;DHT22;11671;49.990;8.028;2023-03-07T09:33:13;9.10;99.90
23010;DHT22;11671;49.990;8.028;2023-03-07T09:35:39;9.10;99.90
23010;DHT22;11671;49.990;8.028;2023-03-07T09:38:05;9.10;99.90
23010;DHT22;11671;49.990;8.028;2023-03-07T09:40:34;9.10;99.90
23010;DHT22;11671;49.990;8.028;2023-03-07T09:45:45;9.30;99.90
23010;DHT22;11671;49.990;8.028;2023-03-07T09:48:26;9.30;99.90
23010;DHT22;11671;49.990;8.028;2023-03-07T09:51:02;9.20;99.90
23010;DHT22;11671;49.990;8.028;2023-03-07T09:54:15;9.40;99.90
23010;DHT22;11671;49.990;8.028;2023-03-07T10:02:00;9.90;99.90
23010;DHT22;11671;49.990;8.028;2023-03-07T10:04:46;10.00;99.90
23010;DHT22;11671;49.990;8.028;2023-03-07T10:07:14;10.20;99.90
23010;DHT22;11671;49.990;8.028;2023-03-07T10:09:42;10.10;99.90
23010;DHT22;11671;49.990;8.028;2023-03-07T10:17:47;10.40;99.90
23010;DHT22;11671;49.990;8.028;2023-03-07T10:20:39;10.60;99.90
23010;DHT22;11671;49.990;8.028;2023-03-07T10:28:26;10.20;99.90
23010;DHT22;11671;49.990;8.028;2023-03-07T10:31:13;10.20;99.90
23010;DHT22;11671;49.990;8.028;2023-03-07T10:33:43;10.30;99.90
23010;DHT22;11671;49.990;8.028;2023-03-07T10:36:41;10.30;99.90
23010;DHT22;11671;49.990;8.028;2023-03-07T10:39:29;10.40;99.90
23010;DHT22;11671;49.990;8.028;2023-03-07T10:41:56;10.50;99.90
23010;DHT22;11671;49.990;8.028;2023-03-07T10:44:22;10.60;99.90
23010;DHT22;11671;49.990;8.028;2023-03-07T10:46:52;10.50;99.90
23010;DHT22;11671;49.990;8.028;2023-03-07T10:49:26;10.60;99.90
23010;DHT22;11671;49.990;8.028;2023-03-07T10:52:00;10.60;99.90
23010;DHT22;11671;49.990;8.028;2023-03-07T10:54:37;10.70;99.90
23010;DHT22;11671;49.990;8.028;2023-03-07T10:57:11;10.60;99.90
23010;DHT22;11671;49.990;8.028;2023-03-07T10:59:42;10.60;99.90
23010;DHT22;11671;49.990;8.028;2023-03-07T11:04:51;10.90;99.90
23010;DHT22;11671;49.990;8.028;2023-03-07T11:07:26;10.80;99.90
23010;DHT22;11671;49.990;8.028;2023-03-07T11:09:53;10.80;99.90
23010;DHT22;11671;49.990;8.028;2023-03-07T11:12:21;10.70;99.90
23010;DHT22;11671;49.990;8.028;2023-03-07T11:17:36;10.60;99.90
23010;DHT22;11671;49.990;8.028;2023-03-07T11:22:42;10.30;99.90
23010;DHT22;11671;49.990;8.028;2023-03-07T11:27:39;10.50;99.90
23010;DHT22;11671;49.990;8.028;2023-03-07T11:50:14;10.70;99.90
23010;DHT22;11671;49.990;8.028;2023-03-07T11:59:05;10.70;99.90
23010;DHT22;11671;49.990;8.028;2023-03-07T12:23:48;10.50;99.90
23010;DHT22;11671;49.990;8.028;2023-03-07T12:26:32;10.30;99.90
23010;DHT22;11671;49.990;8.028;2023-03-07T12:29:11;10.30;99.90
23010;DHT22;11671;49.990;8.028;2023-03-07T12:31:42;10.20;99.90
23010;DHT22;11671;49.990;8.028;2023-03-07T12:36:40;10.20;99.90
23010;DHT22;11671;49.990;8.028;2023-03-07T12:42:17;9.90;99.90
23010;DHT22;11671;49.990;8.028;2023-03-07T12:44:54;9.90;99.90
23010;DHT22;11671;49.990;8.028;2023-03-07T12:53:39;9.70;99.90
23010;DHT22;11671;49.990;8.028;2023-03-07T12:59:13;9.70;99.90
23010;DHT22;11671;49.990;8.028;2023-03-07T13:01:48;9.80;99.90
23010;DHT22;11671;49.990;8.028;2023-03-07T13:04:21;9.90;99.90
23010;DHT22;11671;49.990;8.028;2023-03-07T13:06:48;9.90;99.90
23010;DHT22;11671;49.990;8.028;2023-03-07T13:09:20;9.70;99.90
23010;DHT22;11671;49.990;8.028;2023-03-07T13:12:20;9.60;99.90
23010;DHT22;11671;49.990;8.028;2023-03-07T13:14:58;9.50;99.90
23010;DHT22;11671;49.990;8.028;2023-03-07T13:20:00;9.30;99.90
23010;DHT22;11671;49.990;8.028;2023-03-07T13:53:23;9.50;99.90
23010;DHT22;11671;49.990;8.028;2023-03-07T13:58:55;9.20;99.90
23010;DHT22;11671;49.990;8.028;2023-03-07T14:01:30;9.10;99.90
23010;DHT22;11671;49.990;8.028;2023-03-07T14:06:44;9.00;99.90
23010;DHT22;11671;49.990;8.028;2023-03-07T14:09:14;9.10;99.90
23010;DHT22;11671;49.990;8.028;2023-03-07T14:27:13;8.90;99.90
23010;DHT22;11671;49.990;8.028;2023-03-07T14:29:51;8.90;99.90
23010;DHT22;11671;49.990;8.028;2023-03-07T14:32:27;8.90;99.90
23010;DHT22;11671;49.990;8.028;2023-03-07T14:34:53;8.90;99.90
23010;DHT22;11671;49.990;8.028;2023-03-07T14:37:27;9.10;99.90
23010;DHT22;11671;49.990;8.028;2023-03-07T14:40:25;9.10;99.90
23010;DHT22;11671;49.990;8.028;2023-03-07T14:45:59;9.20;99.90
23010;DHT22;11671;49.990;8.028;2023-03-07T14:48:46;9.20;99.90
23010;DHT22;11671;49.990;8.028;2023-03-07T14:51:21;9.10;99.90
23010;DHT22;11671;49.990;8.028;2023-03-07T14:53:48;9.10;99.90
23010;DHT22;11671;49.990;8.028;2023-03-07T14:56:23;9.10;99.90
23010;DHT22;11671;49.990;8.028;2023-03-07T14:58:56;9.20;99.90
23010;DHT22;11671;49.990;8.028;2023-03-07T15:01:32;9.30;99.90
23010;DHT22;11671;49.990;8.028;2023-03-07T15:04:00;9.30;99.90
23010;DHT22;11671;49.990;8.028;2023-03-07T15:06:27;9.20;99.90
23010;DHT22;11671;49.990;8.028;2023-03-07T15:08:55;9.20;99.90
23010;DHT22;11671;49.990;8.028;2023-03-07T15:11:42;9.10;99.90
23010;DHT22;11671;49.990;8.028;2023-03-07T15:14:33;9.10;99.90
23010;DHT22;11671;49.990;8.028;2023-03-07T15:17:04;9.10;99.90
23010;DHT22;11671;49.990;8.028;2023-03-07T15:19:38;9.30;99.90
23010;DHT22;11671;49.990;8.028;2023-03-07T15:22:17;9.20;99.90
23010;DHT22;11671;49.990;8.028;2023-03-07T15:24:45;9.20;99.90
23010;DHT22;11671;49.990;8.028;2023-03-07T15:27:13;9.20;99.90
23010;DHT22;11671;49.990;8.028;2023-03-07T15:29:45;9.20;99.90
23010;DHT22;11671;49.990;8.028;2023-03-07T15:32:37;9.10;99.90
23010;DHT22;11671;49.990;8.028;2023-03-07T15:37:32;9.10;99.90
23010;DHT22;11671;49.990;8.028;2023-03-07T15:40:24;9.10;99.90
23010;DHT22;11671;49.990;8.028;2023-03-07T15:42:54;9.20;99.90
23010;DHT22;11671;49.990;8.028;2023-03-07T15:45:36;9.20;99.90
23010;DHT22;11671;49.990;8.028;2023-03-07T15:48:28;9.10;99.90
23010;DHT22;11671;49.990;8.028;2023-03-07T15:50:56;9.10;99.90
23010;DHT22;11671;49.990;8.028;2023-03-07T15:53:29;9.20;99.90
23010;DHT22;11671;49.990;8.028;2023-03-07T15:56:00;9.30;99.90
23010;DHT22;11671;49.990;8.028;2023-03-07T15:58:27;9.40;99.90
23010;DHT22;11671;49.990;8.028;2023-03-07T16:01:25;9.30;99.90
23010;DHT22;11671;49.990;8.028;2023-03-07T16:03:57;9.30;99.90
23010;DHT22;11671;49.990;8.028;2023-03-07T16:06:41;9.30;99.90
23010;DHT22;11671;49.990;8.028;2023-03-07T16:09:16;9.30;99.90
23010;DHT22;11671;49.990;8.028;2023-03-07T16:11:43;9.30;99.90
23010;DHT22;11671;49.990;8.028;2023-03-07T16:16:52;9.30;99.90
23010;DHT22;11671;49.990;8.028;2023-03-07T16:19:17;9.30;99.90
23010;DHT22;11671;49.990;8.028;2023-03-07T16:21:43;9.00;99.90
23010;DHT22;11671;49.990;8.028;2023-03-07T16:24:09;8.90;99.90
23010;DHT22;11671;49.990;8.028;2023-03-07T16:26:34;8.90;99.90
23010;DHT22;11671;49.990;8.028;2023-03-07T16:29:00;8.90;99.90
23010;DHT22;11671;49.990;8.028;2023-03-07T16:31:26;8.90;99.90
23010;DHT22;11671;49.990;8.028;2023-03-07T16:33:51;8.90;99.90
23010;DHT22;11671;49.990;8.028;2023-03-07T16:36:18;8.90;99.90
23010;DHT22;11671;49.990;8.028;2023-03-07T16:38:44;8.80;99.90
23010;DHT22;11671;49.990;8.028;2023-03-07T16:41:16;8.60;99.90
23010;DHT22;11671;49.990;8.028;2023-03-07T16:43:43;8.60;99.90
23010;DHT22;11671;49.990;8.028;2023-03-07T16:46:14;8.60;99.90
23010;DHT22;11671;49.990;8.028;2023-03-07T16:48:41;8.50;99.90
23010;DHT22;11671;49.990;8.028;2023-03-07T16:51:18;8.50;99.90
23010;DHT22;11671;49.990;8.028;2023-03-07T16:53:46;8.40;99.90
23010;DHT22;11671;49.990;8.028;2023-03-07T16:56:25;8.40;99.90
23010;DHT22;11671;49.990;8.028;2023-03-07T16:58:52;8.30;99.90
23010;DHT22;11671;49.990;8.028;2023-03-07T17:01:18;8.20;99.90
23010;DHT22;11671;49.990;8.028;2023-03-07T17:03:43;8.10;99.90
23010;DHT22;11671;49.990;8.028;2023-03-07T17:06:11;8.10;99.90
23010;DHT22;11671;49.990;8.028;2023-03-07T17:08:37;8.10;99.90
23010;DHT22;11671;49.990;8.028;2023-03-07T17:11:02;8.10;99.90
23010;DHT22;11671;49.990;8.028;2023-03-07T17:13:28;8.10;99.90
23010;DHT22;11671;49.990;8.028;2023-03-07T17:15:53;8.10;99.90
23010;DHT22;11671;49.990;8.028;2023-03-07T17:18:19;8.10;99.90
23010;DHT22;11671;49.990;8.028;2023-03-07T17:20:46;8.10;99.90
23010;DHT22;11671;49.990;8.028;2023-03-07T17:23:12;8.20;99.90
23010;DHT22;11671;49.990;8.028;2023-03-07T17:25:38;8.10;99.90
23010;DHT22;11671;49.990;8.028;2023-03-07T17:28:06;8.10;99.90
23010;DHT22;11671;49.990;8.028;2023-03-07T17:30:32;8.10;99.90
23010;DHT22;11671;49.990;8.028;2023-03-07T17:32:58;8.20;99.90
23010;DHT22;11671;49.990;8.028;2023-03-07T17:35:25;8.20;99.90
23010;DHT22;11671;49.990;8.028;2023-03-07T17:37:52;8.10;99.90
23010;DHT22;11671;49.990;8.028;2023-03-07T17:40:19;8.10;99.90
23010;DHT22;11671;49.990;8.028;2023-03-07T17:42:46;8.10;99.90
23010;DHT22;11671;49.990;8.028;2023-03-07T17:45:12;8.10;99.90
23010;DHT22;11671;49.990;8.028;2023-03-07T17:47:38;8.10;99.90
23010;DHT22;11671;49.990;8.028;2023-03-07T17:50:05;8.00;99.90
23010;DHT22;11671;49.990;8.028;2023-03-07T17:52:32;8.00;99.90
23010;DHT22;11671;49.990;8.028;2023-03-07T17:54:58;8.00;99.90
23010;DHT22;11671;49.990;8.028;2023-03-07T17:57:23;8.00;99.90
23010;DHT22;11671;49.990;8.028;2023-03-07T17:59:49;8.00;99.90
23010;DHT22;11671;49.990;8.028;2023-03-07T18:02:15;8.00;99.90
23010;DHT22;11671;49.990;8.028;2023-03-07T18:04:41;8.10;99.90
23010;DHT22;11671;49.990;8.028;2023-03-07T18:07:07;8.00;99.90
23010;DHT22;11671;49.990;8.028;2023-03-07T18:09:33;8.10;99.90
23010;DHT22;11671;49.990;8.028;2023-03-07T18:11:59;8.10;99.90
23010;DHT22;11671;49.990;8.028;2023-03-07T18:14:25;8.10;99.90
23010;DHT22;11671;49.990;8.028;2023-03-07T18:16:51;8.00;99.90
23010;DHT22;11671;49.990;8.028;2023-03-07T18:19:18;8.10;99.90
23010;DHT22;11671;49.990;8.028;2023-03-07T18:21:43;8.10;99.90
23010;DHT22;11671;49.990;8.028;2023-03-07T18:24:25;8.10;99.90
23010;DHT22;11671;49.990;8.028;2023-03-07T18:26:52;8.10;99.90
23010;DHT22;11671;49.990;8.028;2023-03-07T18:29:17;8.20;99.90
23010;DHT22;11671;49.990;8.028;2023-03-07T18:31:43;8.20;99.90
23010;DHT22;11671;49.990;8.028;2023-03-07T18:34:09;8.20;99.90